Time;durP1;ratioP1;P1;durP2;ratioP2;P2;SDS_P1;SDS_P2;PMS_P1;PMS_P2;Temp;Humidity;BMP_temperature;BMP_pressure;BME280_temperature;BME280_humidity;BME280_pressure;Samples;Min_cycle;Max_cycle;Signal;HPM_P1;HPM_P2
2022/12/18 00:01:20;;;;;;;;;;;;;;;-6.22;86.11;101809.78;2086929;85;21099;-73
2022/12/18 00:04:23;;;;;;;;;;;;;;;-6.24;86.10;101815.43;2088099;85;20647;-75
2022/12/18 00:07:25;;;;;;;;;;;;;;;-6.27;86.10;101816.77;2083506;85;20186;-73
2022/12/18 00:10:27;;;;;;;;;;;;;;;-6.30;86.16;101816.36;2086381;83;20123;-73
2022/12/18 00:13:28;;;;;;;;;;;;;;;-6.33;86.13;101813.37;2089302;85;20150;-73
2022/12/18 00:16:32;;;;;;;;;;;;;;;-6.34;86.15;101815.95;2083902;85;20710;-73
2022/12/18 00:19:32;;;;;;;;;;;;;;;-6.35;86.20;101815.11;2087856;85;20169;-73
2022/12/18 00:22:33;;;;;;;;;;;;;;;-6.37;86.22;101819.43;2084775;85;20137;-73
2022/12/18 00:25:35;;;;;;;;;;;;;;;-6.40;86.24;101822.05;2084259;85;20170;-73
2022/12/18 00:28:36;;;;;;;;;;;;;;;-6.39;86.32;101824.19;2095730;84;20122;-73
2022/12/18 00:31:38;;;;;;;;;;;;;;;-6.39;86.39;101827.66;2105476;84;20197;-73
2022/12/18 00:34:39;;;;;;;;;;;;;;;-6.39;86.35;101830.23;2105843;83;20109;-73
2022/12/18 00:37:40;;;;;;;;;;;;;;;-6.41;86.35;101840.16;2105306;83;20491;-73
2022/12/18 00:40:40;;;;;;;;;;;;;;;-6.39;86.41;101835.41;2092820;84;20192;-73
2022/12/18 00:43:41;;;;;;;;;;;;;;;-6.37;86.41;101840.09;2115231;83;20517;-73
2022/12/18 00:46:43;;;;;;;;;;;;;;;-6.34;86.45;101851.69;2115823;83;20154;-73
2022/12/18 00:49:44;;;;;;;;;;;;;;;-6.33;86.45;101852.12;2115879;83;20166;-73
2022/12/18 00:52:45;;;;;;;;;;;;;;;-6.32;86.42;101862.86;2114845;83;20166;-73
2022/12/18 00:55:47;;;;;;;;;;;;;;;-6.31;86.40;101854.67;2113656;83;20245;-72
2022/12/18 00:58:48;;;;;;;;;;;;;;;-6.29;86.43;101867.59;2120532;83;20223;-76
2022/12/18 01:01:49;;;;;;;;;;;;;;;-6.28;86.42;101875.75;2082862;83;20156;-73
2022/12/18 01:04:50;;;;;;;;;;;;;;;-6.26;86.45;101881.77;2117806;83;20414;-73
2022/12/18 01:07:53;;;;;;;;;;;;;;;-6.26;86.41;101883.05;2108666;83;20145;-73
2022/12/18 01:10:54;;;;;;;;;;;;;;;-6.29;86.35;101889.11;2082071;83;20123;-73
2022/12/18 01:13:55;;;;;;;;;;;;;;;-6.35;86.30;101895.20;2113666;83;20161;-73
2022/12/18 01:16:56;;;;;;;;;;;;;;;-6.40;86.37;101904.71;2115149;83;20165;-74
2022/12/18 01:19:57;;;;;;;;;;;;;;;-6.42;86.47;101896.14;2109672;83;20455;-73
2022/12/18 01:22:58;;;;;;;;;;;;;;;-6.46;86.55;101903.48;2088523;83;20432;-73
2022/12/18 01:26:05;;;;;;;;;;;;;;;-6.51;86.53;101909.13;2117667;83;20554;-76
2022/12/18 01:29:08;;;;;;;;;;;;;;;-6.57;86.54;101911.77;2073535;85;20158;-73
2022/12/18 01:32:09;;;;;;;;;;;;;;;-6.62;86.61;101904.49;2102438;83;20144;-73
2022/12/18 01:35:10;;;;;;;;;;;;;;;-6.67;86.69;101911.42;2105611;84;20504;-73
2022/12/18 01:38:11;;;;;;;;;;;;;;;-6.70;86.76;101920.08;2095274;84;20137;-72
2022/12/18 01:41:13;;;;;;;;;;;;;;;-6.72;86.81;101928.27;2093838;83;20186;-73
2022/12/18 01:44:51;;;;;;;;;;;;;;;-6.75;86.89;101925.70;2093577;85;21012;-73
2022/12/18 01:48:03;;;;;;;;;;;;;;;-6.73;86.93;101923.09;2093274;85;20168;-73
2022/12/18 01:51:07;;;;;;;;;;;;;;;-6.72;86.99;101916.64;2095824;84;20174;-73
2022/12/18 01:54:07;;;;;;;;;;;;;;;-6.77;86.99;101925.70;2056189;85;20172;-73
2022/12/18 01:57:11;;;;;;;;;;;;;;;-6.79;87.11;101922.27;2080931;84;20103;-72
2022/12/18 02:00:17;;;;;;;;;;;;;;;-6.78;87.16;101929.61;2093387;84;20167;-72
2022/12/18 02:03:20;;;;;;;;;;;;;;;-6.79;87.24;101942.07;2092807;83;20198;-72
2022/12/18 02:06:35;;;;;;;;;;;;;;;-6.79;87.36;101942.92;2093315;84;20165;-74
2022/12/18 02:09:43;;;;;;;;;;;;;;;-6.78;87.39;101948.97;2086892;85;20171;-73
2022/12/18 02:13:18;;;;;;;;;;;;;;;-6.77;87.35;101941.19;2096839;84;20172;-73
2022/12/18 02:16:32;;;;;;;;;;;;;;;-6.74;87.40;101942.90;2085992;84;20109;-73
2022/12/18 02:19:53;;;;;;;;;;;;;;;-6.74;87.39;101935.59;2051026;85;20519;-73
2022/12/18 02:23:16;;;;;;;;;;;;;;;-6.74;87.56;101948.06;2081672;86;20113;-75
2022/12/18 02:26:33;;;;;;;;;;;;;;;-6.74;87.50;101944.19;2053180;86;20408;-73
2022/12/18 02:29:44;;;;;;;;;;;;;;;-6.78;87.48;101954.98;2081524;84;20539;-73
2022/12/18 02:32:48;;;;;;;;;;;;;;;-6.75;87.60;101957.12;2080269;84;20174;-73
2022/12/18 02:35:54;;;;;;;;;;;;;;;-6.70;87.64;101961.80;2089352;84;20148;-74
2022/12/18 02:38:56;;;;;;;;;;;;;;;-6.66;87.67;101962.21;2076490;84;20166;-73
2022/12/18 02:41:58;;;;;;;;;;;;;;;-6.60;87.63;101963.45;2057336;84;20222;-73
2022/12/18 02:44:59;;;;;;;;;;;;;;;-6.59;87.60;101964.74;2092747;84;20265;-73
2022/12/18 02:48:02;;;;;;;;;;;;;;;-6.53;87.67;101963.83;2089432;84;20122;-75
2022/12/18 02:51:23;;;;;;;;;;;;;;;-6.46;87.70;101957.73;2086889;83;20104;-73
2022/12/18 02:54:31;;;;;;;;;;;;;;;-6.45;87.55;101965.89;2089553;84;20182;-73
2022/12/18 02:57:38;;;;;;;;;;;;;;;-6.42;87.61;101964.59;2077627;84;20177;-73
2022/12/18 03:00:43;;;;;;;;;;;;;;;-6.40;87.61;101968.00;2102065;83;20131;-73
2022/12/18 03:03:52;;;;;;;;;;;;;;;-6.39;87.57;101971.44;2095038;84;20169;-74
2022/12/18 03:06:56;;;;;;;;;;;;;;;-6.41;87.49;101978.36;2096312;84;20164;-73
2022/12/18 03:09:58;;;;;;;;;;;;;;;-6.43;87.53;101974.93;2101813;84;20105;-73
2022/12/18 03:13:04;;;;;;;;;;;;;;;-6.45;87.55;101974.92;2097701;83;20160;-73
2022/12/18 03:16:08;;;;;;;;;;;;;;;-6.48;87.57;101975.39;2092523;84;20164;-73
2022/12/18 03:19:15;;;;;;;;;;;;;;;-6.49;87.69;101971.96;2094981;84;20140;-74
2022/12/18 03:22:16;;;;;;;;;;;;;;;-6.49;87.74;101971.96;2102427;84;20105;-73
2022/12/18 03:25:19;;;;;;;;;;;;;;;-6.51;87.75;101975.42;2096357;84;20129;-74
2022/12/18 03:28:22;;;;;;;;;;;;;;;-6.48;87.86;101977.53;2096624;84;20203;-73
2022/12/18 03:31:26;;;;;;;;;;;;;;;-6.44;88.00;101989.58;2094640;84;20132;-73
2022/12/18 03:34:30;;;;;;;;;;;;;;;-6.39;88.04;101986.52;2099489;84;20520;-74
2022/12/18 03:37:33;;;;;;;;;;;;;;;-6.32;88.05;101990.75;2100169;84;20126;-75
2022/12/18 03:40:55;;;;;;;;;;;;;;;-6.30;87.90;101990.75;2100695;84;20099;-73
2022/12/18 03:44:19;;;;;;;;;;;;;;;-6.28;87.84;101990.28;2099714;84;20101;-73
2022/12/18 03:47:33;;;;;;;;;;;;;;;-6.28;87.75;101988.98;2097562;83;20516;-74
2022/12/18 03:50:56;;;;;;;;;;;;;;;-6.29;87.75;101995.04;2096734;84;20401;-74
2022/12/18 03:54:00;;;;;;;;;;;;;;;-6.26;87.81;101998.88;2104160;84;20162;-73
2022/12/18 03:57:06;;;;;;;;;;;;;;;-6.19;87.94;101991.95;2103518;84;20162;-75
2022/12/18 04:00:17;;;;;;;;;;;;;;;-6.15;87.90;101991.89;2101540;84;20146;-73
2022/12/18 04:03:28;;;;;;;;;;;;;;;-6.13;87.83;101995.33;2094258;84;20103;-74
2022/12/18 04:06:32;;;;;;;;;;;;;;;-6.15;87.67;101997.06;2097666;84;20160;-73
2022/12/18 04:09:34;;;;;;;;;;;;;;;-6.14;87.66;102003.96;2077282;83;20449;-75
2022/12/18 04:12:37;;;;;;;;;;;;;;;-6.21;87.55;102008.75;2109062;83;20200;-73
2022/12/18 04:15:39;;;;;;;;;;;;;;;-6.20;87.68;102009.16;2119505;83;20107;-73
2022/12/18 04:18:42;;;;;;;;;;;;;;;-6.17;87.73;102010.86;2095111;83;20158;-74
2022/12/18 04:21:42;;;;;;;;;;;;;;;-6.16;87.67;102015.18;2114410;83;20204;-74
2022/12/18 04:24:44;;;;;;;;;;;;;;;-6.19;87.57;102019.09;2105710;83;20102;-73
2022/12/18 04:27:53;;;;;;;;;;;;;;;-6.22;87.53;102029.42;2108978;83;20186;-74
2022/12/18 04:30:54;;;;;;;;;;;;;;;-6.22;87.58;102025.55;2115333;83;20246;-74
2022/12/18 04:33:56;;;;;;;;;;;;;;;-6.18;87.69;102039.73;2116207;83;20133;-73
2022/12/18 04:36:57;;;;;;;;;;;;;;;-6.15;87.75;102045.30;2116507;83;20210;-73
2022/12/18 04:39:59;;;;;;;;;;;;;;;-6.13;87.74;102043.13;2113907;83;20111;-74
2022/12/18 04:43:03;;;;;;;;;;;;;;;-6.13;87.62;102043.13;2114465;83;20195;-77
2022/12/18 04:46:05;;;;;;;;;;;;;;;-6.06;87.70;102050.83;2113677;83;20097;-76
2022/12/18 04:49:06;;;;;;;;;;;;;;;-6.06;87.58;102056.84;2073813;84;20321;-73
2022/12/18 04:52:07;;;;;;;;;;;;;;;-6.02;87.66;102068.04;2114695;83;20179;-73
2022/12/18 04:55:08;;;;;;;;;;;;;;;-6.00;87.64;102068.86;2071207;84;20216;-73
2022/12/18 04:58:12;;;;;;;;;;;;;;;-5.96;87.62;102073.16;2111503;83;20107;-73
2022/12/18 05:01:14;;;;;;;;;;;;;;;-5.96;87.54;102075.73;2086905;85;20161;-73
2022/12/18 05:04:15;;;;;;;;;;;;;;;-5.96;87.50;102084.34;2081522;84;20172;-74
2022/12/18 05:07:20;;;;;;;;;;;;;;;-6.01;87.40;102079.64;2113778;83;20111;-75
2022/12/18 05:10:19;;;;;;;;;;;;;;;-6.03;87.40;102078.79;2097191;84;20153;-74
2022/12/18 05:13:19;;;;;;;;;;;;;;;-6.07;87.38;102073.23;2073476;84;20147;-73
2022/12/18 05:16:20;;;;;;;;;;;;;;;-6.09;87.36;102076.27;2074200;84;20192;-73
2022/12/18 05:19:21;;;;;;;;;;;;;;;-6.06;87.46;102081.41;2120348;83;20099;-73
2022/12/18 05:22:22;;;;;;;;;;;;;;;-6.02;87.47;102075.80;2083756;85;20463;-75
2022/12/18 05:25:23;;;;;;;;;;;;;;;-5.98;87.50;102070.56;2082809;85;20174;-73
2022/12/18 05:28:26;;;;;;;;;;;;;;;-5.97;87.36;102072.30;2088781;85;20142;-73
2022/12/18 05:31:27;;;;;;;;;;;;;;;-6.00;87.22;102080.05;2087173;84;20137;-76
2022/12/18 05:34:30;;;;;;;;;;;;;;;-6.01;87.20;102079.64;2084777;85;20190;-73
2022/12/18 05:37:31;;;;;;;;;;;;;;;-6.01;87.20;102078.80;2082217;85;20099;-73
2022/12/18 05:40:32;;;;;;;;;;;;;;;-6.00;87.29;102080.49;2082082;84;20173;-73
2022/12/18 05:43:35;;;;;;;;;;;;;;;-6.00;87.23;102080.05;2079651;84;20517;-76
2022/12/18 05:46:36;;;;;;;;;;;;;;;-6.03;87.23;102083.96;2090033;84;20158;-73
2022/12/18 05:49:37;;;;;;;;;;;;;;;-5.98;87.24;102088.66;2094212;84;20628;-74
2022/12/18 05:52:38;;;;;;;;;;;;;;;-5.94;87.30;102105.88;2099825;84;20166;-77
2022/12/18 05:55:40;;;;;;;;;;;;;;;-5.94;87.13;102095.53;2093520;84;20183;-75
2022/12/18 05:58:42;;;;;;;;;;;;;;;-5.99;87.00;102097.30;2105021;83;20170;-74
2022/12/18 06:01:43;;;;;;;;;;;;;;;-6.04;86.88;102107.25;2088398;85;20104;-75
2022/12/18 06:04:44;;;;;;;;;;;;;;;-6.05;86.98;102115.45;2092303;84;20508;-73
2022/12/18 06:07:44;;;;;;;;;;;;;;;-6.04;86.96;102116.30;2092536;85;20155;-74
2022/12/18 06:10:52;;;;;;;;;;;;;;;-6.07;86.96;102124.94;2088514;85;20170;-73
2022/12/18 06:13:54;;;;;;;;;;;;;;;-6.09;86.92;102121.49;2082769;85;20199;-77
2022/12/18 06:16:55;;;;;;;;;;;;;;;-6.09;86.99;102129.25;2107738;83;20107;-73
2022/12/18 06:19:56;;;;;;;;;;;;;;;-6.08;86.90;102133.56;2085633;85;20218;-73
2022/12/18 06:22:59;;;;;;;;;;;;;;;-6.10;86.87;102138.73;2105053;83;20160;-73
2022/12/18 06:26:06;;;;;;;;;;;;;;;-6.12;86.69;102142.20;2079757;84;20179;-73
2022/12/18 06:29:07;;;;;;;;;;;;;;;-6.17;86.52;102145.23;2109785;84;20168;-75
2022/12/18 06:32:08;;;;;;;;;;;;;;;-6.21;86.58;102153.45;2107963;83;20433;-74
2022/12/18 06:35:09;;;;;;;;;;;;;;;-6.21;86.62;102155.19;2110694;83;20167;-74
2022/12/18 06:38:10;;;;;;;;;;;;;;;-6.22;86.69;102155.63;2111208;83;20162;-73
2022/12/18 06:41:14;;;;;;;;;;;;;;;-6.14;86.86;102168.48;2103342;84;20198;-73
2022/12/18 06:44:14;;;;;;;;;;;;;;;-6.07;86.83;102177.92;2104792;84;20103;-71
2022/12/18 06:47:15;;;;;;;;;;;;;;;-6.04;86.70;102174.45;2101753;84;20150;-75
2022/12/18 06:50:16;;;;;;;;;;;;;;;-5.99;86.74;102183.90;2097944;83;20213;-76
2022/12/18 06:53:17;;;;;;;;;;;;;;;-6.02;86.37;102184.36;2098365;84;20893;-77
2022/12/18 06:56:18;;;;;;;;;;;;;;;-6.06;86.23;102186.52;2104594;84;20146;-75
2022/12/18 06:59:19;;;;;;;;;;;;;;;-6.09;86.21;102196.45;2098143;83;20170;-82
2022/12/18 07:02:20;;;;;;;;;;;;;;;-6.09;86.24;102188.25;2111639;83;20143;-79
2022/12/18 07:05:23;;;;;;;;;;;;;;;-6.11;86.16;102190.42;2078110;85;20224;-77
2022/12/18 07:08:24;;;;;;;;;;;;;;;-6.10;86.25;102198.63;2088759;84;20125;-79
2022/12/18 07:11:26;;;;;;;;;;;;;;;-6.07;86.36;102199.89;2069759;84;20165;-72
2022/12/18 07:14:27;;;;;;;;;;;;;;;-6.02;86.36;102195.55;2081019;84;20517;-75
2022/12/18 07:17:29;;;;;;;;;;;;;;;-6.00;86.28;102193.80;2080544;84;20158;-80
2022/12/18 07:20:30;;;;;;;;;;;;;;;-5.97;86.16;102198.09;2097467;83;20184;-78
2022/12/18 07:23:34;;;;;;;;;;;;;;;-5.96;86.17;102208.44;2099401;83;20177;-75
2022/12/18 07:26:35;;;;;;;;;;;;;;;-5.93;86.08;102204.50;2099056;83;20107;-77
2022/12/18 07:29:36;;;;;;;;;;;;;;;-5.96;85.92;102207.14;2101867;83;20477;-75
2022/12/18 07:32:37;;;;;;;;;;;;;;;-5.95;85.91;102215.30;2099753;83;20938;-74
2022/12/18 07:35:38;;;;;;;;;;;;;;;-5.91;86.01;102213.11;2097963;84;20155;-75
2022/12/18 07:38:39;;;;;;;;;;;;;;;-5.83;86.13;102216.06;2095841;84;20183;-73
2022/12/18 07:41:45;;;;;;;;;;;;;;;-5.76;86.11;102216.45;2107600;83;20167;-73
2022/12/18 07:44:44;;;;;;;;;;;;;;;-5.74;85.91;102217.30;2108418;83;20269;-75
2022/12/18 07:47:44;;;;;;;;;;;;;;;-5.75;85.76;102218.16;2110650;84;20095;-74
2022/12/18 07:50:45;;;;;;;;;;;;;;;-5.75;85.66;102231.94;2110520;83;20235;-74
2022/12/18 07:53:47;;;;;;;;;;;;;;;-5.78;85.64;102231.11;2114993;83;20244;-73
2022/12/18 07:56:47;;;;;;;;;;;;;;;-5.76;85.70;102230.23;2114871;83;20126;-73
2022/12/18 07:59:48;;;;;;;;;;;;;;;-5.76;85.55;102234.55;2111201;82;20134;-73
2022/12/18 08:02:49;;;;;;;;;;;;;;;-5.79;85.29;102229.41;2110831;83;20421;-75
2022/12/18 08:05:50;;;;;;;;;;;;;;;-5.87;85.03;102234.18;2108711;83;20107;-73
2022/12/18 08:08:54;;;;;;;;;;;;;;;-5.88;85.29;102241.53;2111735;83;20144;-73
2022/12/18 08:11:55;;;;;;;;;;;;;;;-5.89;85.33;102233.77;2125811;83;20580;-73
2022/12/18 08:14:56;;;;;;;;;;;;;;;-5.84;85.51;102244.94;2119419;83;20963;-75
2022/12/18 08:17:57;;;;;;;;;;;;;;;-5.78;85.59;102240.16;2103368;83;20261;-74
2022/12/18 08:21:14;;;;;;;;;;;;;;;-5.74;85.60;102240.14;2101839;83;20222;-74
2022/12/18 08:24:15;;;;;;;;;;;;;;;-5.73;85.37;102252.63;2082391;84;20164;-74
2022/12/18 08:27:17;;;;;;;;;;;;;;;-5.75;85.28;102272.47;2104444;83;20937;-76
2022/12/18 08:30:20;;;;;;;;;;;;;;;-5.78;85.24;102280.25;2101657;83;20140;-73
2022/12/18 08:33:21;;;;;;;;;;;;;;;-5.77;85.29;102285.83;2107862;83;20165;-72
2022/12/18 08:36:23;;;;;;;;;;;;;;;-5.76;85.36;102294.03;2121284;83;20149;-73
2022/12/18 08:39:24;;;;;;;;;;;;;;;-5.78;85.22;102286.71;2081409;84;20150;-73
2022/12/18 08:45:44;;;;;;;;;;;;;;;-5.74;85.38;102289.72;2090785;84;20480;-72
2022/12/18 08:48:45;;;;;;;;;;;;;;;-5.70;85.23;102290.11;2082527;85;20106;-73
2022/12/18 08:51:46;;;;;;;;;;;;;;;-5.70;84.80;102300.02;2072339;84;20159;-72
2022/12/18 08:54:47;;;;;;;;;;;;;;;-5.72;84.75;102312.53;2072127;85;20226;-72
2022/12/18 08:57:49;;;;;;;;;;;;;;;-5.73;84.85;102309.09;2059075;84;20249;-71
2022/12/18 09:00:50;;;;;;;;;;;;;;;-5.63;85.11;102316.38;2092770;84;20392;-73
2022/12/18 09:03:51;;;;;;;;;;;;;;;-5.65;84.40;102308.61;2076830;84;20167;-72
2022/12/18 09:06:52;;;;;;;;;;;;;;;-5.73;84.30;102306.94;2111808;83;20194;-72
2022/12/18 09:09:53;;;;;;;;;;;;;;;-5.69;84.67;102307.33;2108022;83;20216;-73
2022/12/18 09:12:55;;;;;;;;;;;;;;;-5.68;84.59;102307.78;2107948;83;20214;-72
2022/12/18 09:15:57;;;;;;;;;;;;;;;-5.70;84.58;102298.72;2109898;83;20189;-77
2022/12/18 09:19:01;;;;;;;;;;;;;;;-5.68;84.28;102305.19;2107459;83;20130;-72
2022/12/18 09:22:02;;;;;;;;;;;;;;;-5.70;84.41;102308.22;2102630;83;20111;-74
2022/12/18 09:25:04;;;;;;;;;;;;;;;-5.64;84.49;102312.05;2107278;83;20581;-72
2022/12/18 09:28:08;;;;;;;;;;;;;;;-5.61;84.45;102313.76;2084089;83;20221;-70
2022/12/18 09:31:12;;;;;;;;;;;;;;;-5.58;84.39;102293.89;2107044;83;20184;-80
2022/12/18 09:34:13;;;;;;;;;;;;;;;-5.52;84.30;102283.53;2105285;83;20207;-78
2022/12/18 09:37:21;;;;;;;;;;;;;;;-5.45;84.38;102274.84;2110402;83;20089;-82
2022/12/18 09:40:26;;;;;;;;;;;;;;;-5.36;84.34;102266.58;2111986;84;20179;-86
2022/12/18 09:43:42;;;;;;;;;;;;;;;-5.31;84.10;102269.99;2083816;85;20104;-86
2022/12/18 09:46:56;;;;;;;;;;;;;;;-5.36;83.40;102252.34;2085621;83;20115;-87
2022/12/18 09:49:59;;;;;;;;;;;;;;;-5.39;83.47;102246.75;2099787;83;20108;-87
2022/12/18 09:53:04;;;;;;;;;;;;;;;-5.36;83.68;102242.84;2068915;85;20156;-87
2022/12/18 09:56:05;;;;;;;;;;;;;;;-5.34;83.44;102240.27;2115196;82;20162;-86
2022/12/18 09:59:27;;;;;;;;;;;;;;;-5.29;83.26;102230.73;2086584;83;20099;-86
2022/12/18 10:02:30;;;;;;;;;;;;;;;-5.28;82.49;102234.58;2109400;83;20198;-87
2022/12/18 10:05:35;;;;;;;;;;;;;;;-5.36;82.94;102244.58;2112920;83;20503;-86
2022/12/18 10:08:46;;;;;;;;;;;;;;;-5.39;82.97;102248.49;2113326;83;20103;-86
2022/12/18 10:12:11;;;;;;;;;;;;;;;-5.48;82.77;102252.87;2115810;83;20137;-83
2022/12/18 10:15:16;;;;;;;;;;;;;;;-5.43;83.26;102260.61;2101074;84;20194;-86
2022/12/18 10:18:32;;;;;;;;;;;;;;;-5.38;83.15;102251.49;2060675;85;20136;-86
2022/12/18 10:21:46;;;;;;;;;;;;;;;-5.46;82.88;102253.72;2089204;84;20177;-87
2022/12/18 10:25:06;;;;;;;;;;;;;;;-5.38;83.42;102259.25;2083547;85;20205;-88
2022/12/18 10:28:15;;;;;;;;;;;;;;;-5.24;83.43;102264.77;2114015;83;20340;-83
2022/12/18 10:31:21;;;;;;;;;;;;;;;-5.17;83.22;102266.84;2088112;85;20212;-84
2022/12/18 10:34:24;;;;;;;;;;;;;;;-5.09;83.17;102254.69;2099294;83;20137;-85
2022/12/18 10:37:27;;;;;;;;;;;;;;;-5.03;82.89;102251.19;2083467;84;20182;-87
2022/12/18 10:40:28;;;;;;;;;;;;;;;-5.04;82.12;102249.45;2071641;84;20193;-86
2022/12/18 10:43:38;;;;;;;;;;;;;;;-5.08;82.24;102255.55;2092385;84;20158;-86
2022/12/18 10:46:45;;;;;;;;;;;;;;;-5.11;82.03;102240.89;2120936;82;20107;-80
2022/12/18 10:49:52;;;;;;;;;;;;;;;-5.06;82.38;102248.62;2124223;83;20128;-82
2022/12/18 10:53:01;;;;;;;;;;;;;;;-5.18;81.99;102261.22;2126637;82;20416;-85
2022/12/18 10:56:04;;;;;;;;;;;;;;;-5.24;82.10;102258.70;2131670;83;20223;-84
2022/12/18 10:59:08;;;;;;;;;;;;;;;-5.40;82.03;102260.58;2130606;82;20161;-84
2022/12/18 11:02:13;;;;;;;;;;;;;;;-5.45;82.04;102252.84;2126212;83;20118;-84
2022/12/18 11:05:31;;;;;;;;;;;;;;;-5.43;82.43;102255.43;2117955;83;20153;-84
2022/12/18 11:08:33;;;;;;;;;;;;;;;-5.34;82.51;102262.26;2120466;83;20121;-84
2022/12/18 11:11:34;;;;;;;;;;;;;;;-5.27;82.39;102260.02;2133858;83;20160;-84
2022/12/18 11:14:44;;;;;;;;;;;;;;;-5.25;82.29;102259.58;2134971;82;20153;-83
2022/12/18 11:17:48;;;;;;;;;;;;;;;-5.15;82.34;102259.05;2127218;82;20184;-84
2022/12/18 11:20:58;;;;;;;;;;;;;;;-4.98;82.75;102267.09;2119877;83;20155;-84
2022/12/18 11:23:59;;;;;;;;;;;;;;;-4.88;82.43;102259.23;2123442;83;20407;-84
2022/12/18 11:27:03;;;;;;;;;;;;;;;-4.78;82.62;102256.97;2090114;84;20172;-84
2022/12/18 11:30:25;;;;;;;;;;;;;;;-4.70;82.10;102262.93;2128376;83;20156;-84
2022/12/18 11:33:26;;;;;;;;;;;;;;;-4.65;82.14;102269.34;2129582;83;20557;-83
2022/12/18 11:36:31;;;;;;;;;;;;;;;-4.66;81.82;102274.11;2128074;83;20135;-83
2022/12/18 11:39:36;;;;;;;;;;;;;;;-4.73;81.73;102275.89;2123993;82;20095;-81
2022/12/18 11:42:43;;;;;;;;;;;;;;;-4.61;82.22;102276.22;2071286;84;20193;-83
2022/12/18 11:45:59;;;;;;;;;;;;;;;-4.49;81.84;102273.91;2082765;84;20399;-83
2022/12/18 11:49:03;;;;;;;;;;;;;;;-4.43;81.53;102280.31;2043073;85;20210;-83
2022/12/18 11:52:23;;;;;;;;;;;;;;;-4.60;80.32;102273.59;2072780;84;20132;-83
2022/12/18 11:55:43;;;;;;;;;;;;;;;-4.71;80.73;102272.85;2086319;84;20180;-83
2022/12/18 11:58:51;;;;;;;;;;;;;;;-4.65;81.29;102275.37;2063030;84;20192;-83
2022/12/18 12:01:56;;;;;;;;;;;;;;;-4.65;81.07;102267.59;2067113;84;20468;-83
2022/12/18 12:05:03;;;;;;;;;;;;;;;-4.72;80.83;102262.08;2023693;84;20236;-84
2022/12/18 12:08:29;;;;;;;;;;;;;;;-4.78;80.78;102261.70;2059285;84;20171;-83
2022/12/18 12:11:34;;;;;;;;;;;;;;;-4.84;80.75;102260.89;2080719;84;20117;-84
2022/12/18 12:15:00;;;;;;;;;;;;;;;-4.86;81.05;102260.08;2067053;84;20498;-81
2022/12/18 12:18:26;;;;;;;;;;;;;;;-4.80;81.46;102266.04;2043615;86;20452;-84
2022/12/18 12:21:36;;;;;;;;;;;;;;;-4.71;81.36;102263.78;2036937;86;20161;-85
2022/12/18 12:24:53;;;;;;;;;;;;;;;-4.78;80.31;102260.86;2078837;84;20121;-85
2022/12/18 12:27:58;;;;;;;;;;;;;;;-4.90;80.26;102250.16;2048182;86;20221;-86
2022/12/18 12:31:26;;;;;;;;;;;;;;;-4.94;80.63;102247.64;2040254;86;20147;-86
2022/12/18 12:34:50;;;;;;;;;;;;;;;-4.91;80.96;102256.67;2078547;84;20216;-86
2022/12/18 12:38:01;;;;;;;;;;;;;;;-4.93;80.74;102252.78;2077466;84;20403;-85
2022/12/18 12:43:12;;;;;;;;;;;;;;;-4.92;80.83;102247.20;2041576;86;20178;-86
2022/12/18 12:44:21;;;;;;;;;;;;;;;-4.88;81.05;102243.69;2043116;85;20142;-86
2022/12/18 12:47:25;;;;;;;;;;;;;;;-4.71;81.11;102254.72;2058118;85;20166;-86
2022/12/18 12:50:28;;;;;;;;;;;;;;;-4.71;80.44;102249.98;2056887;85;20160;-78
2022/12/18 12:53:33;;;;;;;;;;;;;;;-4.67;80.83;102242.17;2067018;85;20173;-83
2022/12/18 12:56:50;;;;;;;;;;;;;;;-4.70;80.45;102252.57;2039068;86;20139;-80
2022/12/18 13:00:13;;;;;;;;;;;;;;;-4.70;80.83;102253.86;2075784;84;20106;-77
2022/12/18 13:03:21;;;;;;;;;;;;;;;-4.79;80.11;102250.05;2071557;84;20170;-78
2022/12/18 13:06:35;;;;;;;;;;;;;;;-4.97;80.30;102246.80;2065165;86;20577;-79
2022/12/18 13:09:57;;;;;;;;;;;;;;;-5.00;80.80;102254.59;2072897;84;20117;-78
2022/12/18 13:13:09;;;;;;;;;;;;;;;-5.05;80.45;102262.84;2065917;85;20119;-79
2022/12/18 13:16:10;;;;;;;;;;;;;;;-5.12;80.31;102266.38;2038078;86;20394;-79
2022/12/18 13:19:17;;;;;;;;;;;;;;;-5.17;80.76;102262.96;2069198;84;20188;-80
2022/12/18 13:22:29;;;;;;;;;;;;;;;-5.16;80.85;102271.58;2065141;85;20180;-75
2022/12/18 13:25:34;;;;;;;;;;;;;;;-5.15;81.03;102271.58;2077055;84;20388;-74
2022/12/18 13:28:54;;;;;;;;;;;;;;;-5.25;80.58;102261.73;2080584;83;20404;-76
2022/12/18 13:32:00;;;;;;;;;;;;;;;-5.38;80.62;102250.20;2082437;84;20117;-76
2022/12/18 13:35:25;;;;;;;;;;;;;;;-5.47;80.76;102259.75;2076224;84;20165;-75
2022/12/18 13:38:27;;;;;;;;;;;;;;;-5.53;80.92;102252.48;2061014;86;20176;-74
2022/12/18 13:41:31;;;;;;;;;;;;;;;-5.67;80.99;102247.41;2053637;84;20497;-74
2022/12/18 13:44:40;;;;;;;;;;;;;;;-5.71;81.25;102257.37;2082334;85;20183;-80
2022/12/18 13:47:43;;;;;;;;;;;;;;;-5.79;81.18;102257.41;2089475;84;20113;-83
2022/12/18 13:50:47;;;;;;;;;;;;;;;-5.83;81.44;102269.06;2091052;83;20180;-76
2022/12/18 13:53:51;;;;;;;;;;;;;;;-5.83;81.48;102272.95;2105632;83;20140;-75
2022/12/18 13:56:52;;;;;;;;;;;;;;;-5.90;81.43;102275.58;2098312;83;20190;-76
2022/12/18 13:59:54;;;;;;;;;;;;;;;-5.94;81.45;102275.62;2077761;83;20155;-84
2022/12/18 14:02:57;;;;;;;;;;;;;;;-5.94;81.83;102274.33;2099850;84;20119;-80
2022/12/18 14:06:04;;;;;;;;;;;;;;;-6.00;81.71;102274.37;2100936;83;20558;-82
2022/12/18 14:09:05;;;;;;;;;;;;;;;-6.09;81.63;102280.45;2071584;84;20486;-78
2022/12/18 14:15:43;;;;;;;;;;;;;;;-6.25;81.85;102293.89;2102752;83;20107;-78
2022/12/18 14:18:48;;;;;;;;;;;;;;;-6.28;82.01;102293.02;2096809;84;20516;-79
2022/12/18 14:21:50;;;;;;;;;;;;;;;-6.29;82.00;102295.20;2099636;83;20223;-80
2022/12/18 14:25:12;;;;;;;;;;;;;;;-6.35;81.98;102291.77;2102479;82;20146;-78
2022/12/18 14:28:15;;;;;;;;;;;;;;;-6.40;82.11;102289.62;2101601;83;20107;-80
2022/12/18 14:31:27;;;;;;;;;;;;;;;-6.44;82.31;102302.14;2098790;83;20424;-79
2022/12/18 14:34:28;;;;;;;;;;;;;;;-6.45;82.49;102309.44;2085762;83;20107;-79
2022/12/18 14:37:30;;;;;;;;;;;;;;;-6.46;82.66;102304.30;2090592;85;20201;-80
2022/12/18 14:40:32;;;;;;;;;;;;;;;-6.47;82.79;102314.22;2112704;83;20103;-80
2022/12/18 14:43:38;;;;;;;;;;;;;;;-6.47;82.73;102319.38;2100348;83;20235;-80
2022/12/18 14:46:45;;;;;;;;;;;;;;;-6.48;82.69;102313.33;2085350;84;20182;-79
2022/12/18 14:49:46;;;;;;;;;;;;;;;-6.50;82.70;102319.36;2092500;84;20130;-81
2022/12/18 14:52:48;;;;;;;;;;;;;;;-6.51;82.69;102323.67;2083720;84;20196;-79
2022/12/18 14:55:51;;;;;;;;;;;;;;;-6.54;82.77;102328.84;2103039;83;20162;-80
2022/12/18 14:59:01;;;;;;;;;;;;;;;-6.55;82.80;102329.73;2082696;84;20114;-78
2022/12/18 15:02:14;;;;;;;;;;;;;;;-6.56;82.75;102331.86;2105906;83;20092;-80
2022/12/18 15:05:22;;;;;;;;;;;;;;;-6.60;82.90;102341.34;2064546;84;20254;-79
2022/12/18 15:08:33;;;;;;;;;;;;;;;-6.59;83.13;102343.09;2074962;84;20192;-77
2022/12/18 15:11:43;;;;;;;;;;;;;;;-6.61;83.18;102337.49;2071936;84;20170;-78
2022/12/18 15:14:45;;;;;;;;;;;;;;;-6.64;83.25;102333.62;2102350;84;20177;-79
2022/12/18 15:17:46;;;;;;;;;;;;;;;-6.66;83.37;102330.18;2088860;83;20166;-78
2022/12/18 15:20:56;;;;;;;;;;;;;;;-6.69;83.29;102332.77;2085217;85;20506;-81
2022/12/18 15:23:57;;;;;;;;;;;;;;;-6.72;83.54;102328.91;2103271;83;20164;-82
2022/12/18 15:27:02;;;;;;;;;;;;;;;-6.73;83.47;102322.86;2080491;84;20127;-78
2022/12/18 15:30:16;;;;;;;;;;;;;;;-6.72;83.48;102328.91;2097270;83;20160;-78
2022/12/18 15:33:24;;;;;;;;;;;;;;;-6.73;83.50;102320.27;2094925;83;20168;-78
2022/12/18 15:36:25;;;;;;;;;;;;;;;-6.77;83.48;102322.45;2103664;83;20142;-78
2022/12/18 15:39:29;;;;;;;;;;;;;;;-6.75;83.61;102325.89;2096057;83;20138;-78
2022/12/18 15:45:50;;;;;;;;;;;;;;;-6.80;83.76;102325.89;2118208;83;20189;-81
2022/12/18 15:48:56;;;;;;;;;;;;;;;-6.80;83.75;102314.71;2115248;83;20492;-78
2022/12/18 15:52:00;;;;;;;;;;;;;;;-6.82;83.97;102313.84;2081361;84;20228;-79
2022/12/18 15:58:21;;;;;;;;;;;;;;;-6.89;84.12;102307.84;2101407;83;20483;-78
2022/12/18 16:01:25;;;;;;;;;;;;;;;-6.88;83.84;102309.55;2102662;83;20125;-78
2022/12/18 16:04:26;;;;;;;;;;;;;;;-6.88;83.91;102313.42;2103736;83;20210;-78